Record high temperature 35.2°C Record low temperature -28.5°C Record high gust 73.6 km/h Record high average 52.2 km/h Record daily rain 78.0 mm Record low windchill -39.6°C Record high barometer 1045.2 hPa Record low barometer 973.0 hPa
Daily high pressure 1010 hPa Daily low pressure 1008 hPa Daily low windchill 20.6°C Daily high heat index 21.1°C Daily high gust speed 0.0 kmh W Daily high average speed 0.0 kmh WNW
Beaconsfield Home Weather Data WMR-968
LAST READING AT TIME: 05:00 DATE: September 02 2014, time of next update: 05:05
Current WeatherNight time/Dry/A few clouds Current Temperature 20.8°C (69.4°F) (Heat Index 20.8°C ), Apparent temp 22.5°C
Maximum Temperature (since midnight)21.1°C at: 00:00 Minimum Temperature (since midnight)20.6°C at: 03:49
Average windspeed (ten minute)0.0 kmh (0.0 kts) Wind Direction (ten minute)SE (135°)
Windchill Temperature 20.8°C Maximum Gust (last hour)0.0 kmh (0.0 kts) at: 05:00
Maximum Gust (since midnight)0.0 kmh (0.0 kts) at: 13:55 Maximum 1 minute average (since midnight)0.0 kmh (0.0 kts) at: 11:54
Rainfall (last hour)0.0 mm Rainfall (since midnight)0.0 mm (0.00 in.)---
Rainfall This month 0.0 mm (0.00 in.) Rainfall To date this year 567.0 mm (22.32 in.)
Maximum rain per minute (last hour)0.0 mm/min Maximum rain per hour (last 6 hours)0.0 mm/hour
Yesterdays rainfall 0.0 mm DewPoint 15.6°C (Wet Bulb :17.7°C )
Humidity 72 %, Humidex 25.1°C Barometer corrected to msl1008 hPa
Pressure change 0 hPa (last hour) Trend (last hour)STEADY
Pressure change (last 12 hours)-5 hPa Pressure change (last 6 hours)-3 hPa
Current Indoor Temp. 25.8°C
Current Indoor Hum. 45%
Current 00:00 hours of sunshine today, current sky: Night time/Dry/A few clouds
Sunshine hours for the year: 45:57 hrs Sunshine hours for the month: 00:00 hrs
Current evapotranspiration rate 0.0 mm per day. Yesterday's reading 4.0




Weather report/warning/Metars

Montreal / Pierre Elliot Trudeau International Airport, Que, Canada (CYUL) 45-28N 073-45W 36M
Sep 02, 2014 - 04:00 AM EDT / 2014.09.02 0800 UTC
Wind: from the SSE (150 degrees) at 10 MPH (9 KT):0
Visibility: 15 mile(s):0
Sky conditions: mostly clear
Temperature: 71 F (22 C)
Dew Point: 64 F (18 C)
Relative Humidity: 78%
Pressure (altimeter): 29.77 in. Hg (1008 hPa)
ob: CYUL 020800Z 15009KT 15SM FEW070 22/18 A2977 RMK AC2 SLP081 DENSITY ALT 1000FT
cycle: 8
Sherbrooke, Que., Canada (CYSC) 45-24N 071-53W
Sep 02, 2014 - 04:00 AM EDT / 2014.09.02 0800 UTC
Wind: from the E (080 degrees) at 3 MPH (3 KT):0
Visibility: 9 mile(s):0
Sky conditions: clear
Temperature: 60 F (16 C)
Dew Point: 59 F (15 C)
Relative Humidity: 93%
Pressure (altimeter): 29.87 in. Hg (1011 hPa)
ob: CYSC 020800Z AUTO 08003KT 9SM CLR 16/15 A2987 RMK SLP113 DENSITY ALT 1100FT
cycle: 8
St Jovite Automatic Weather Reporting System , Canada (CWJT) 46-04N 074-32W
Sep 02, 2014 - 04:00 AM EDT / 2014.09.02 0800 UTC
Wind: from the E (090 degrees) at 1 MPH (1 KT):0
Temperature: 63.9 F (17.7 C)
Dew Point: 63.3 F (17.4 C)
Relative Humidity: 98%
Pressure tendency: 0.04 inches (1.4 hPa) lower than three hours ago
ob: CWJT 020800Z AUTO 09001KT 18/17 RMK AO1 SLP078 T01770174 57014
cycle: 8
Ste Anne De Bell 1, Canada (CWVQ) 45-26N 073-56W
Sep 02, 2014 - 04:00 AM EDT / 2014.09.02 0800 UTC
Wind: from the SE (140 degrees) at 2 MPH (2 KT):0
Temperature: 68.4 F (20.2 C)
Dew Point: 64.9 F (18.3 C)
Relative Humidity: 88%
Pressure tendency: 0.04 inches (1.5 hPa) lower than three hours ago
ob: CWVQ 020800Z AUTO 14002KT 20/18 RMK AO1 SLP079 T02020183 58015
cycle: 8
Montreal / Mirabel, Canada (CYMX) 45-41N 074-02W
Sep 02, 2014 - 04:00 AM EDT / 2014.09.02 0800 UTC
Wind: from the NE (050 degrees) at 3 MPH (3 KT):0
Visibility: 15 mile(s):0
Sky conditions: mostly cloudy
Weather: light rain showers
Temperature: 64 F (18 C)
Dew Point: 62 F (17 C)
Relative Humidity: 93%
Pressure (altimeter): 29.79 in. Hg (1008 hPa)
ob: CYMX 020800Z 05003KT 15SM -SHRA SCT040 BKN110 18/17 A2979 RMK SC4AC2 SLP088 DENSITY ALT 800FT
cycle: 8
L'Acadie, Canada (CWIZ) 45-18N 073-21W
Sep 02, 2014 - 04:00 AM EDT / 2014.09.02 0800 UTC
Wind: from the SSE (160 degrees) at 6 MPH (5 KT):0
Temperature: 68.9 F (20.5 C)
Dew Point: 67.6 F (19.8 C)
Relative Humidity: 95%
ob: CWIZ 020800Z AUTO 16005KT 21/20 RMK AO1 T02050198
cycle: 8
St Anicet, Canada (CWBZ) 45-07N 074-17W 49M
Sep 02, 2014 - 04:00 AM EDT / 2014.09.02 0800 UTC
Wind: from the SW (230 degrees) at 3 MPH (3 KT):0
Temperature: 70.7 F (21.5 C)
Dew Point: 68.2 F (20.1 C)
Relative Humidity: 91%
Pressure tendency: 0.04 inches (1.5 hPa) lower than three hours ago
ob: CWBZ 020800Z AUTO 23003KT 22/20 RMK AO1 SLP077 T02150201 56015
cycle: 8
Mount Washington, NH, United States (KMWN) 44-16N 071-18W 1910M
Sep 02, 2014 - 02:57 AM EDT / 2014.09.02 0657 UTC
Wind: from the W (260 degrees) at 26 MPH (23 KT):0
Visibility: 1/16 mile(s):0
Sky conditions: obscured
Weather: mist
Temperature: 53 F (12 C)
Dew Point: 53 F (12 C)
Relative Humidity: 100%
ob: KMWN 020657Z 26023KT 1/16SM BR VV001 12/12 
cycle: 7
Vancouver International Air-Port, B. C., Canada (CYVR) 49-11N 123-10W 2M
Sep 02, 2014 - 04:00 AM EDT / 2014.09.02 0800 UTC
Wind: Calm:0
Visibility: 15 mile(s):0
Sky conditions: overcast
Temperature: 62 F (17 C)
Dew Point: 55 F (13 C)
Relative Humidity: 77%
Pressure (altimeter): 29.96 in. Hg (1014 hPa)
ob: CYVR 020800Z 00000KT 15SM FEW035 OVC059 17/13 A2996 RMK SC2SC6 SLP146 DENSITY ALT 100FT
cycle: 8



The data is logged at two minute intervals, but there is data recorded every minute.

Use the RELOAD facility on your browser to retrieve the latest data.

Click here for a daily update of the averages/extremes to date for the month

Click here for Real Time Weather



Created by "Weather Display" software version 10.37R Build 51 at this start time/date 18:55 2014-08-15